• Join FlightAware (Why Join?)
  • Login
  • US Flag 
12:46PM EDT


 

Airport Tracker/Info


-or-


 

Live Flight TrackerFlight Track Log ✈ SKW7367 ✈ 14-Nov-2013 ✈ KDTW - KAPN

Flight Track Log - Related Links

Times and Time Zones

All times are in EST time to prevent confusion due to time zone crossing. See the SKW7367 flight status page for this flight to view local times or setup timezone preferences in your user account.

Time Position Orientation Groundspeed Altitude Reporting Facility
EST Latitude Longitude Course Direction KTS MPH feet Rate Location/Type
04:02PM 42.2081 -83.3675 North 133 153 1,400  Level Cleveland Center
04:04PM 42.1792 -83.4214 234° Southwest 178 205 4,100 2,220 Climbing Cleveland Center
04:05PM 42.1761 -83.4817 266° West 199 229 6,500 2,340 Climbing Cleveland Center
04:05PM 42.1828 -83.5019 294° West 212 244 7,000 1,920 Climbing Cleveland Center
04:06PM 42.5827 -83.3790 North  Level Estimated
04:06PM 42.2067 -83.5514 303° West 215 247 8,500  Level Cleveland Center
04:06PM 42.2133 -83.5683 298° West 223 257 8,900 1,920 Climbing Cleveland Center
04:07PM 42.6753 -83.3855 North  Level Estimated
04:07PM 42.2394 -83.6286 300° West 230 265 10,500  Level Cleveland Center
04:08PM 42.7679 -83.3811 North  Level FlightAware Approximate
04:08PM 42.3150 -83.6361 356° North 305 351 12,300  Level Cleveland Center
04:09PM 42.4028 -83.5958 19° North 327 376 13,900 1,260 Climbing Cleveland Center
04:10PM 42.4903 -83.5567 18° North 329 379 15,000 480 Climbing Cleveland Center
04:11PM 42.5717 -83.5194 19° North 311 358 15,000  Level Cleveland Center
04:12PM 42.6653 -83.4772 18° North 297 342 15,000  Level Cleveland Center
04:13PM 42.7458 -83.4403 19° North 302 348 15,000  Level Cleveland Center
04:14PM 42.8261 -83.4033 19° North 303 349 15,000  Level Cleveland Center
04:15PM 42.9094 -83.3675 17° North 311 358 15,000 -60 Level Cleveland Center
04:16PM 42.9931 -83.3656 North 301 346 14,900 -60 Descending Cleveland Center
04:17PM 43.0761 -83.3686 358° North 299 344 14,900  Level Cleveland Center
04:18PM 43.1353 -83.4575 312° West 260 299 14,900  Level Cleveland Center
04:19PM 43.1822 -83.5281 312° West 252 290 14,900  Level Cleveland Center
04:20PM 43.2264 -83.5978 311° West 244 281 14,900  Level Cleveland Center
04:21PM 43.2708 -83.6669 311° West 243 280 14,900  Level Cleveland Center
04:22PM 43.3136 -83.7344 311° West 237 273 14,900  Level Cleveland Center
04:23PM 43.3653 -83.8153 311° West 235 270 14,900  Level Cleveland Center
04:24PM 43.4089 -83.8800 313° West 233 268 14,900  Level Cleveland Center
04:25PM 43.4806 -83.8883 355° North 268 308 14,900  Level Cleveland Center
04:26PM 43.5569 -83.8819 North 274 315 14,900  Level Cleveland Center
04:27PM 43.6369 -83.8767 North 284 327 14,900  Level Cleveland Center
04:28PM 43.7197 -83.8672 North 295 339 14,900  Level Cleveland Center
04:29PM 43.8050 -83.8603 North 294 338 14,900  Level Cleveland Center
04:30PM 43.9019 -83.8536 North 292 336 14,900  Level Cleveland Center
04:32PM 43.9825 -83.8461 North 291 335 14,900 -300 Level Cleveland Center
04:33PM 44.0622 -83.8386 North 289 333 14,300 -780 Descending Cleveland Center
04:34PM 44.1347 -83.8317 North 268 308 13,300 -1,020 Descending Cleveland Center
04:35PM 44.2053 -83.8258 North 257 296 12,300 -1,080 Descending Cleveland Center
04:36PM 44.2936 -83.8172 North 262 302 11,100 -1,080 Descending Cleveland Center
04:37PM 44.3939 -83.7794 15° North 283 326 9,800 -1,080 Descending Minneapolis Center
04:38PM 44.4706 -83.7442 18° North 274 315 8,600 -1,080 Descending Minneapolis Center
04:39PM 44.5361 -83.7131 19° North 256 295 7,600 -840 Descending Minneapolis Center
04:40PM 44.6028 -83.6811 19° North 240 276 6,900 -720 Descending Minneapolis Center
04:41PM 44.6628 -83.6533 18° North 231 266 6,200 -780 Descending Minneapolis Center
04:42PM 44.7264 -83.6236 18° North 228 262 5,400 -780 Descending Minneapolis Center
04:43PM 44.7897 -83.5931 19° North 225 259 4,700 -660 Descending Minneapolis Center
04:44PM 44.8442 -83.5669 19° North 214 246 4,100 -540 Descending Minneapolis Center
04:45PM 44.9031 -83.5606 North 203 234 3,700 -600 Descending Minneapolis Center
04:46PM 44.9561 -83.5611 360° North 197 227 2,900 -840 Descending Minneapolis Center
04:47PM 45.0025 -83.5611 360° North 162 186 2,000 -840 Descending Minneapolis Center
04:48PM 45.0431 -83.5611 360° North 147 169 1,200 -660 Descending Minneapolis Center
04:49PM 45.0817 -83.5608 360° North 142 163 700 -540 Descending Minneapolis Center